Airfield :
LOGIN :

Register | Disclaimer

   EN    FR    IT 

 










Legend :    VFR   Marginal VFR   IFR   Intensive IFR   Very Intensive IFR
Visi :
Ceiling :
>= 8 km
>= 3000ft
5 to 8 km
1000 to 3000 ft
1500m to 5 km
500 to 1000 ft
800 to 1500m
200 to 500 ft
< 800m
< 200 ft
Symbols :   Thunderstorms  Fog  Heavy snow  Heavy precipitations  Wind > 20 kt
SIGMETs :     Misc.  Thunderstorms  Icing  Turbulence  Mountain Waves  Volcanic Ashes






- Airport Elevation : 1302 ft
- IATA code : GNB


LFLS - Grenoble / St. Geoirs

CURRENT METAR :
  • 150830Z AUTO 27003KT 240V320 9999 RA FEW009/// BKN042/// OVC048/// ///CB 13/13 Q1010 TEMPO 27015G30KT 4000 RA BKN013 FEW025CB

EXPIRED METARs :
  • 150800Z AUTO 08003KT 050V120 9999 -RA FEW017/// BKN048/// BKN060/// ///TCU 13/13 Q1010 TEMPO 27015G30KT 4000 RA BKN013 FEW025CB
  • 150730Z AUTO VRB03KT 9999 -RA FEW008/// BKN013/// BKN062/// ///CB 13/12 Q1010 TEMPO 27015G30KT 4000 RA
  • 150700Z AUTO /////KT 6000 -RA BKN013/// OVC018/// ///CB 13/12 Q1010
  • 150630Z AUTO 27010KT 2700 +RA BR FEW011/// BKN018/// BKN026/// ///CB 13/12 Q1010 TEMPO 27015G30KT 4000 RA BKN013 FEW025CB
  • 150600Z AUTO 22005KT 5000 2400 RA BR VCTS BKN010/// OVC018/// ///CB 15/14 Q1009 TEMPO VRB15G30KT 1500 TSRA

TAF TAF LFLS
Valid from the 15 at 03:00 until the 16 at 03:00 UTC


150200Z 1503/1603 VRB02KT 9999 BKN070
TEMPO 1503/1516 4000 RA
PROB40
TEMPO 1503/1508 VRB15G30KT 1500 TSRA BKN013 BKN070CB
BECMG 1508/1510 25010KT
PROB40
TEMPO 1508/1516 27015G30KT BKN013 FEW025CB
BECMG 1516/1518 09008KT
ATIS : +33 4 76 65 55 89



MET'MAP, your aeronautical weather chart ! - Copyright ORBIFLY December 2007 - Disclaimer

ORBIFLY MET'MAP TEAM :

Programming & Development : Alexandra Zaïnal
Concept & Development : Baudouin d'Aumeries
Co-Development & Prog : Marc-Olivier Méhu
Technical & hardware support : Manuel Goepfert

Contact : metmap@orbifly.com




SOURCES & CREDITS :

   NOAA